createdAt,value
2019-01-31T00:02:12.903Z,24.37
2019-01-31T00:05:02.558Z,23.30
2019-01-31T00:08:03.626Z,22.83
2019-01-31T00:11:25.248Z,23.77
2019-01-31T00:14:29.764Z,24.23
2019-01-31T00:17:39.800Z,24.17
2019-01-31T00:20:19.511Z,23.43
2019-01-31T00:23:24.161Z,24.57
2019-01-31T00:26:38.912Z,23.77
2019-01-31T00:29:45.058Z,23.63
2019-01-31T00:33:13.524Z,23.13
2019-01-31T00:36:19.509Z,23.40
2019-01-31T00:39:33.117Z,23.20
2019-01-31T00:42:32.675Z,22.67
2019-01-31T00:45:26.577Z,22.80
2019-01-31T00:48:12.577Z,23.53
2019-01-31T00:51:02.371Z,22.47
2019-01-31T00:53:55.284Z,22.87
2019-01-31T00:56:52.122Z,22.67
2019-01-31T01:00:14.637Z,22.43
2019-01-31T01:03:00.759Z,23.53
2019-01-31T01:06:08.096Z,23.00
2019-01-31T01:08:51.890Z,21.73
2019-01-31T01:12:07.126Z,21.67
2019-01-31T01:14:56.521Z,23.60
2019-01-31T01:17:53.774Z,21.87
2019-01-31T01:21:02.506Z,21.40
2019-01-31T01:23:48.798Z,21.77
2019-01-31T01:26:58.307Z,22.30
2019-01-31T01:30:17.406Z,21.47
2019-01-31T01:32:57.450Z,21.67
2019-01-31T01:35:49.739Z,22.03
2019-01-31T01:39:18.974Z,22.10
2019-01-31T01:42:32.026Z,19.47
2019-01-31T01:45:32.287Z,22.47
2019-01-31T01:48:35.111Z,21.07
2019-01-31T01:51:34.944Z,20.63
2019-01-31T01:54:30.402Z,20.90
2019-01-31T01:57:55.585Z,19.93
2019-01-31T02:00:49.588Z,20.37
2019-01-31T02:03:59.914Z,19.87
2019-01-31T02:07:14.024Z,20.37
2019-01-31T02:10:27.870Z,21.10
2019-01-31T02:13:15.882Z,19.87
2019-01-31T02:16:22.286Z,20.40
2019-01-31T02:18:57.740Z,21.10
2019-01-31T02:22:03.468Z,19.37
2019-01-31T02:25:09.873Z,20.10
2019-01-31T02:28:09.411Z,19.37
2019-01-31T02:30:55.333Z,18.90
2019-01-31T02:33:39.527Z,19.70
2019-01-31T02:36:33.325Z,20.60
2019-01-31T02:39:43.318Z,19.90
2019-01-31T02:42:23.428Z,19.40
2019-01-31T02:45:10.076Z,20.37
2019-01-31T02:48:19.210Z,19.50
2019-01-31T02:51:08.275Z,19.27
2019-01-31T02:54:08.290Z,19.57
2019-01-31T02:57:01.252Z,19.33
2019-01-31T03:00:14.239Z,18.93
2019-01-31T03:02:57.086Z,20.37
2019-01-31T03:06:00.601Z,19.67
2019-01-31T03:09:22.974Z,20.17
2019-01-31T03:12:08.805Z,19.00
2019-01-31T03:15:01.050Z,18.73
2019-01-31T03:17:57.609Z,19.03
2019-01-31T03:21:04.659Z,19.00
2019-01-31T03:24:12.074Z,18.50
2019-01-31T03:27:11.759Z,18.97
2019-01-31T03:30:19.149Z,20.43
2019-01-31T03:33:07.726Z,18.90
2019-01-31T03:36:08.062Z,19.00
2019-01-31T03:39:07.501Z,20.07
2019-01-31T03:42:14.603Z,18.90
2019-01-31T03:45:04.888Z,20.93
2019-01-31T03:48:14.064Z,20.07
2019-01-31T03:50:53.137Z,18.63
2019-01-31T03:53:55.518Z,19.87
2019-01-31T03:56:47.839Z,20.43
2019-01-31T03:59:23.961Z,19.40
2019-01-31T04:02:00.183Z,18.83
2019-01-31T04:04:36.654Z,18.20
2019-01-31T04:07:05.773Z,20.23
2019-01-31T04:09:34.728Z,19.53
2019-01-31T04:12:04.148Z,18.97
2019-01-31T04:14:33.436Z,17.80
2019-01-31T04:17:02.426Z,19.53
2019-01-31T04:19:31.449Z,19.30
2019-01-31T04:22:00.399Z,19.90
2019-01-31T04:24:29.409Z,18.93
2019-01-31T04:26:58.403Z,19.10
2019-01-31T04:29:27.795Z,17.67
2019-01-31T04:31:56.709Z,17.53
2019-01-31T04:34:26.074Z,17.67
2019-01-31T04:36:55.075Z,18.53
2019-01-31T04:39:24.311Z,18.67
2019-01-31T04:41:53.234Z,18.87
2019-01-31T04:44:22.249Z,19.37
2019-01-31T04:46:51.302Z,17.50
2019-01-31T04:49:20.602Z,18.20
2019-01-31T04:51:49.516Z,17.17
2019-01-31T04:54:18.956Z,16.83
2019-01-31T04:56:47.915Z,17.97
2019-01-31T04:59:16.787Z,17.50
2019-01-31T05:01:45.842Z,16.93
2019-01-31T05:04:15.099Z,17.47
2019-01-31T05:06:44.013Z,17.93
2019-01-31T05:09:12.955Z,17.67
2019-01-31T05:11:41.900Z,16.83
2019-01-31T05:14:11.178Z,18.90
2019-01-31T05:16:40.091Z,18.57
2019-01-31T05:19:09.023Z,16.90
2019-01-31T05:21:38.025Z,17.30
2019-01-31T05:24:06.933Z,17.33
2019-01-31T05:26:36.150Z,17.17
2019-01-31T05:29:05.249Z,17.53
2019-01-31T05:31:34.188Z,18.73
2019-01-31T05:34:03.499Z,17.23
2019-01-31T05:36:33.084Z,17.03
2019-01-31T05:39:02.071Z,17.70
2019-01-31T05:41:31.522Z,18.13
2019-01-31T05:44:01.122Z,18.13
2019-01-31T05:46:30.227Z,18.37
2019-01-31T05:48:59.435Z,17.90
2019-01-31T05:51:28.659Z,17.30
2019-01-31T05:53:57.893Z,17.90
2019-01-31T05:56:26.774Z,16.73
2019-01-31T05:58:55.716Z,17.23
2019-01-31T06:01:24.735Z,16.17
2019-01-31T06:03:53.683Z,17.17
2019-01-31T06:06:22.634Z,18.33
2019-01-31T06:08:52.229Z,17.80
2019-01-31T06:11:21.501Z,15.63
2019-01-31T06:13:50.434Z,17.00
2019-01-31T06:16:19.435Z,17.00
2019-01-31T06:18:48.663Z,17.27
2019-01-31T06:21:17.687Z,17.60
2019-01-31T06:23:46.630Z,17.63
2019-01-31T06:26:15.739Z,17.47
2019-01-31T06:28:44.679Z,17.83
2019-01-31T06:31:13.715Z,17.60
2019-01-31T06:33:42.642Z,18.70
2019-01-31T06:36:11.525Z,18.33
2019-01-31T06:38:40.645Z,18.90
2019-01-31T06:41:18.424Z,18.53
2019-01-31T06:43:40.239Z,19.63
2019-01-31T06:46:09.317Z,20.10
2019-01-31T06:48:38.241Z,19.70
2019-01-31T06:51:07.286Z,18.87
2019-01-31T06:53:36.842Z,19.40
2019-01-31T06:56:05.915Z,20.13
2019-01-31T06:58:34.852Z,19.90
2019-01-31T07:01:04.487Z,18.97
2019-01-31T07:03:33.419Z,19.23
2019-01-31T07:06:02.730Z,19.13
2019-01-31T07:08:31.664Z,17.57
2019-01-31T07:11:00.823Z,18.20
2019-01-31T07:13:29.998Z,19.27
2019-01-31T07:15:59.096Z,21.30
2019-01-31T07:18:28.020Z,23.97
2019-01-31T07:20:57.075Z,23.23
2019-01-31T07:23:26.116Z,23.97
2019-01-31T07:25:55.677Z,23.70
2019-01-31T07:28:24.683Z,21.73
2019-01-31T07:30:53.724Z,21.57
2019-01-31T07:33:22.743Z,21.50
2019-01-31T07:35:52.290Z,21.73
2019-01-31T07:38:21.277Z,23.17
2019-01-31T07:40:50.239Z,22.33
2019-01-31T07:43:19.202Z,24.00
2019-01-31T07:45:48.551Z,26.47
2019-01-31T07:48:17.474Z,26.60
2019-01-31T07:50:46.733Z,25.27
2019-01-31T07:53:15.737Z,24.97
2019-01-31T07:55:45.061Z,25.27
2019-01-31T07:58:14.015Z,23.07
2019-01-31T08:00:43.029Z,22.10
2019-01-31T08:03:11.958Z,22.87
2019-01-31T08:05:41.039Z,21.63
2019-01-31T08:08:10.112Z,23.03
2019-01-31T08:10:41.059Z,19.83
2019-01-31T08:13:10.737Z,20.40
2019-01-31T08:15:39.842Z,19.83
2019-01-31T08:18:11.095Z,20.03
2019-01-31T08:20:40.178Z,20.00
2019-01-31T08:23:09.221Z,19.43
2019-01-31T08:25:38.191Z,18.70
2019-01-31T08:28:07.716Z,18.40
2019-01-31T08:30:39.015Z,18.17
2019-01-31T08:33:08.031Z,19.20
2019-01-31T08:35:37.148Z,20.03
2019-01-31T08:38:06.565Z,18.83
2019-01-31T08:40:35.868Z,18.67
2019-01-31T08:43:05.153Z,18.57
2019-01-31T08:45:34.680Z,17.47
2019-01-31T08:48:03.785Z,17.67
2019-01-31T08:50:33.304Z,18.60
2019-01-31T08:53:02.371Z,17.13
2019-01-31T08:55:31.388Z,17.67
2019-01-31T08:58:00.512Z,17.80
2019-01-31T09:00:30.201Z,17.10
2019-01-31T09:02:59.322Z,16.77
2019-01-31T09:05:28.675Z,17.00
2019-01-31T09:07:57.922Z,21.67
2019-01-31T09:10:32.179Z,17.33
2019-01-31T09:13:02.995Z,19.97
2019-01-31T09:15:32.046Z,19.80
2019-01-31T09:18:01.075Z,16.80
2019-01-31T09:20:40.598Z,16.43
2019-01-31T09:23:33.458Z,13.83
2019-01-31T09:26:20.638Z,13.43
2019-01-31T09:29:17.709Z,14.23
2019-01-31T09:32:24.227Z,13.70
2019-01-31T09:35:10.082Z,13.53
2019-01-31T09:38:29.730Z,14.30
2019-01-31T09:41:20.010Z,13.67
2019-01-31T09:44:39.218Z,14.33
2019-01-31T09:47:48.475Z,13.30
2019-01-31T09:50:49.239Z,13.13
2019-01-31T09:53:55.015Z,12.73
2019-01-31T09:57:20.229Z,12.27
2019-01-31T10:00:29.785Z,11.47
2019-01-31T10:03:42.149Z,12.33
2019-01-31T10:06:40.827Z,11.50
2019-01-31T10:09:36.294Z,11.53
2019-01-31T10:12:38.635Z,11.30
2019-01-31T10:15:32.995Z,11.83
2019-01-31T10:18:42.491Z,11.40
2019-01-31T10:21:55.351Z,11.80
2019-01-31T10:25:22.567Z,10.63
2019-01-31T10:28:20.509Z,11.40
2019-01-31T10:31:00.453Z,10.50
2019-01-31T10:34:07.892Z,10.67
2019-01-31T10:37:08.143Z,11.47
2019-01-31T10:39:59.190Z,9.47
2019-01-31T10:42:51.745Z,9.97
2019-01-31T10:46:15.537Z,10.33
2019-01-31T10:49:34.667Z,9.83
2019-01-31T10:52:28.699Z,10.00
2019-01-31T10:55:39.470Z,11.07
2019-01-31T10:58:58.873Z,9.77
2019-01-31T11:01:51.946Z,9.03
2019-01-31T11:04:56.752Z,9.87
2019-01-31T11:07:37.345Z,8.90
2019-01-31T11:10:59.499Z,8.97
2019-01-31T11:14:12.471Z,7.10
2019-01-31T11:17:29.674Z,8.20
2019-01-31T11:20:31.264Z,7.77
2019-01-31T11:23:31.991Z,7.20
2019-01-31T11:26:47.675Z,6.30
2019-01-31T11:29:44.020Z,5.60
2019-01-31T11:32:42.995Z,6.83
2019-01-31T11:35:37.995Z,5.97
2019-01-31T11:38:48.449Z,6.57
2019-01-31T11:41:37.651Z,6.87
2019-01-31T11:44:43.607Z,8.17
2019-01-31T11:47:47.787Z,7.87
2019-01-31T11:50:59.126Z,7.87
2019-01-31T11:53:45.480Z,5.90
2019-01-31T11:56:50.743Z,5.87
2019-01-31T11:59:19.830Z,5.13
2019-01-31T12:01:48.830Z,5.30
2019-01-31T12:04:18.769Z,4.17
2019-01-31T12:06:47.959Z,4.33
2019-01-31T12:09:19.649Z,4.07
2019-01-31T12:11:48.853Z,4.40
2019-01-31T12:14:18.347Z,4.00
2019-01-31T12:16:47.453Z,4.23
2019-01-31T12:19:16.652Z,4.30
2019-01-31T12:21:45.743Z,4.60
2019-01-31T12:24:16.551Z,5.00
2019-01-31T12:26:45.580Z,4.10
2019-01-31T12:29:14.640Z,4.67
2019-01-31T12:31:45.925Z,4.10
2019-01-31T12:34:14.934Z,4.77
2019-01-31T12:36:47.767Z,5.37
2019-01-31T12:39:16.764Z,5.07
2019-01-31T12:41:46.009Z,4.63
2019-01-31T12:44:14.987Z,4.80
2019-01-31T12:46:43.971Z,5.43
2019-01-31T12:49:12.933Z,5.10
2019-01-31T12:51:41.992Z,5.30
2019-01-31T12:54:11.423Z,5.67
2019-01-31T12:56:41.083Z,4.87
2019-01-31T12:59:10.147Z,5.40
2019-01-31T13:01:39.209Z,5.60
2019-01-31T13:04:08.197Z,5.43
2019-01-31T13:06:37.389Z,5.47
2019-01-31T13:09:09.485Z,5.20
2019-01-31T13:11:38.666Z,5.40
2019-01-31T13:14:08.151Z,4.57
2019-01-31T13:16:37.296Z,4.73
2019-01-31T13:19:06.637Z,5.20
2019-01-31T13:21:35.639Z,6.87
2019-01-31T13:24:05.183Z,6.37
2019-01-31T13:26:34.285Z,5.40
2019-01-31T13:29:03.365Z,4.13
2019-01-31T13:31:32.300Z,4.40
2019-01-31T13:34:01.395Z,4.03
2019-01-31T13:36:30.386Z,4.20
2019-01-31T13:38:59.611Z,4.77
2019-01-31T13:41:28.681Z,4.00
2019-01-31T13:43:58.053Z,5.10
2019-01-31T13:46:27.026Z,3.70
2019-01-31T13:48:56.271Z,4.43
2019-01-31T13:51:25.267Z,4.40
2019-01-31T13:53:54.741Z,4.43
2019-01-31T13:56:24.017Z,5.27
2019-01-31T13:58:53.027Z,4.90
2019-01-31T14:01:22.229Z,4.87
2019-01-31T14:03:51.287Z,4.50
2019-01-31T14:06:20.207Z,4.60
2019-01-31T14:08:49.481Z,5.63
2019-01-31T14:11:19.085Z,4.50
2019-01-31T14:13:48.170Z,4.70
2019-01-31T14:16:17.192Z,5.10
2019-01-31T14:18:46.511Z,5.20
2019-01-31T14:21:15.937Z,5.40
2019-01-31T14:23:44.957Z,6.47
2019-01-31T14:26:14.008Z,6.00
2019-01-31T14:28:43.340Z,6.13
2019-01-31T14:31:12.609Z,6.27
2019-01-31T14:33:41.890Z,6.43
2019-01-31T14:36:11.103Z,6.43
2019-01-31T14:38:40.185Z,6.50
2019-01-31T14:41:09.253Z,6.43
2019-01-31T14:43:38.811Z,5.67
2019-01-31T14:46:07.933Z,5.63
2019-01-31T14:48:36.988Z,6.53
2019-01-31T14:51:06.301Z,6.23
2019-01-31T14:53:35.245Z,7.93
2019-01-31T14:56:04.682Z,8.03
2019-01-31T14:58:33.704Z,10.53
2019-01-31T15:01:02.793Z,8.00
2019-01-31T15:03:31.911Z,7.57
2019-01-31T15:06:00.995Z,6.80
2019-01-31T15:08:29.965Z,8.07
2019-01-31T15:10:59.183Z,7.67
2019-01-31T15:13:28.199Z,6.27
2019-01-31T15:15:57.118Z,6.80
2019-01-31T15:18:26.221Z,6.20
2019-01-31T15:20:55.252Z,7.43
2019-01-31T15:23:30.132Z,7.20
2019-01-31T15:25:59.263Z,7.47
2019-01-31T15:28:28.290Z,7.57
2019-01-31T15:30:57.181Z,7.87
2019-01-31T15:33:26.241Z,7.77
2019-01-31T15:35:55.251Z,7.03
2019-01-31T15:38:24.185Z,7.60
2019-01-31T15:40:53.312Z,7.60
2019-01-31T15:43:22.415Z,7.97
2019-01-31T15:45:51.506Z,7.47
2019-01-31T15:48:20.589Z,8.27
2019-01-31T15:50:49.674Z,8.70
2019-01-31T15:53:18.601Z,8.73
2019-01-31T15:55:47.688Z,10.27
2019-01-31T15:58:16.971Z,9.60
2019-01-31T16:00:48.830Z,8.87
2019-01-31T16:03:19.951Z,8.27
2019-01-31T16:05:49.322Z,8.17
2019-01-31T16:08:18.690Z,8.23
2019-01-31T16:10:47.927Z,8.33
2019-01-31T16:13:17.298Z,7.63
2019-01-31T16:15:46.772Z,8.63
2019-01-31T16:18:16.248Z,9.20
2019-01-31T16:20:45.715Z,10.80
2019-01-31T16:23:16.001Z,12.50
2019-01-31T16:25:47.591Z,8.73
2019-01-31T16:28:16.262Z,8.27
2019-01-31T16:30:45.675Z,8.90
2019-01-31T16:33:14.786Z,8.60
2019-01-31T16:35:44.465Z,8.77
2019-01-31T16:38:13.652Z,10.80
2019-01-31T16:40:43.019Z,11.67
2019-01-31T16:43:12.203Z,12.00
2019-01-31T16:45:41.490Z,9.80
2019-01-31T16:48:10.436Z,9.53
2019-01-31T16:50:39.635Z,9.63
2019-01-31T16:53:09.500Z,9.57
2019-01-31T16:55:38.455Z,10.13
2019-01-31T16:58:08.023Z,9.17
2019-01-31T17:00:37.130Z,10.27
2019-01-31T17:03:06.925Z,9.97
2019-01-31T17:05:36.139Z,10.13
2019-01-31T17:08:06.549Z,10.90
2019-01-31T17:10:35.921Z,10.87
2019-01-31T17:13:05.689Z,11.63
2019-01-31T17:15:34.966Z,12.47
2019-01-31T17:18:05.539Z,14.13
2019-01-31T17:20:43.210Z,12.73
2019-01-31T17:23:12.460Z,10.83
2019-01-31T17:25:41.618Z,10.20
2019-01-31T17:28:10.628Z,10.50
2019-01-31T17:30:39.730Z,12.47
2019-01-31T17:33:08.893Z,14.23
2019-01-31T17:35:38.174Z,11.90
2019-01-31T17:38:07.371Z,13.57
2019-01-31T17:40:38.847Z,11.63
2019-01-31T17:43:09.549Z,12.73
2019-01-31T17:45:38.891Z,12.50
2019-01-31T17:48:10.736Z,12.57
2019-01-31T17:50:40.277Z,11.87
2019-01-31T17:53:09.315Z,10.83
2019-01-31T17:55:41.230Z,11.50
2019-01-31T17:58:09.020Z,13.47
2019-01-31T18:00:43.857Z,13.10
2019-01-31T18:03:13.075Z,12.37
2019-01-31T18:05:42.526Z,13.10
2019-01-31T18:08:11.899Z,13.43
2019-01-31T18:10:40.980Z,13.60
2019-01-31T18:13:10.004Z,12.90
2019-01-31T18:15:42.047Z,13.43
2019-01-31T18:18:09.894Z,13.30
2019-01-31T18:20:38.958Z,13.63
2019-01-31T18:23:08.047Z,14.23
2019-01-31T18:25:37.035Z,14.70
2019-01-31T18:28:06.416Z,14.70
2019-01-31T18:30:35.580Z,15.53
2019-01-31T18:33:05.571Z,15.80
2019-01-31T18:35:34.804Z,15.63
2019-01-31T18:38:03.818Z,15.77
2019-01-31T18:40:33.044Z,16.13
2019-01-31T18:43:02.207Z,17.07
2019-01-31T18:45:31.951Z,15.77
2019-01-31T18:48:01.492Z,15.70
2019-01-31T18:50:35.391Z,16.07
2019-01-31T18:53:05.060Z,14.47
2019-01-31T18:55:34.774Z,14.23
2019-01-31T18:58:04.294Z,13.93
2019-01-31T19:00:35.802Z,14.03
2019-01-31T19:03:05.335Z,14.43
2019-01-31T19:05:34.538Z,14.10
2019-01-31T19:08:05.595Z,15.30
2019-01-31T19:10:42.898Z,14.57
2019-01-31T19:13:05.745Z,16.00
2019-01-31T19:15:34.895Z,15.83
2019-01-31T19:18:06.328Z,15.40
2019-01-31T19:20:35.593Z,15.97
2019-01-31T19:23:07.069Z,16.27
2019-01-31T19:25:42.418Z,15.50
2019-01-31T19:28:13.282Z,15.90
2019-01-31T19:30:42.261Z,17.33
2019-01-31T19:33:11.291Z,16.77
2019-01-31T19:35:40.662Z,18.33
2019-01-31T19:38:10.636Z,19.17
2019-01-31T19:40:42.525Z,17.77
2019-01-31T19:43:12.060Z,19.87
2019-01-31T19:45:43.573Z,18.73
2019-01-31T19:48:12.833Z,20.93
2019-01-31T19:50:43.582Z,21.57
2019-01-31T19:53:12.865Z,22.67
2019-01-31T19:55:41.878Z,21.53
2019-01-31T19:58:10.943Z,23.70
2019-01-31T20:00:40.043Z,24.50
2019-01-31T20:03:09.441Z,25.20
2019-01-31T20:05:39.046Z,26.10
2019-01-31T20:08:10.323Z,27.23
2019-01-31T20:10:40.092Z,26.40
2019-01-31T20:13:10.463Z,26.17
2019-01-31T20:15:41.751Z,29.60
2019-01-31T20:18:10.976Z,27.83
2019-01-31T20:20:42.729Z,30.13
2019-01-31T20:23:11.180Z,28.63
2019-01-31T20:25:40.582Z,28.63
2019-01-31T20:28:09.594Z,29.20
2019-01-31T20:30:38.634Z,29.63
2019-01-31T20:33:07.838Z,29.60
2019-01-31T20:35:36.759Z,29.70
2019-01-31T20:38:06.077Z,29.33
2019-01-31T20:40:38.575Z,30.20
2019-01-31T20:43:08.622Z,31.03
2019-01-31T20:45:37.987Z,30.67
2019-01-31T20:48:08.817Z,32.07
2019-01-31T20:50:39.855Z,32.27
2019-01-31T20:53:09.708Z,31.47
2019-01-31T20:55:38.855Z,31.63
2019-01-31T20:58:07.989Z,32.63
2019-01-31T21:00:43.718Z,32.60
2019-01-31T21:03:13.158Z,33.10
2019-01-31T21:05:43.024Z,33.87
2019-01-31T21:08:13.671Z,33.50
2019-01-31T21:10:43.058Z,34.97
2019-01-31T21:13:12.721Z,33.53
2019-01-31T21:15:42.213Z,34.63
2019-01-31T21:18:11.673Z,35.67
2019-01-31T21:20:40.863Z,34.43
2019-01-31T21:23:11.008Z,35.50
2019-01-31T21:25:40.262Z,35.93
2019-01-31T21:28:09.249Z,35.43
2019-01-31T21:30:40.419Z,35.70
2019-01-31T21:33:09.461Z,35.43
2019-01-31T21:35:38.916Z,36.00
2019-01-31T21:38:15.039Z,38.50
2019-01-31T21:40:44.082Z,37.50
2019-01-31T21:43:13.152Z,38.20
2019-01-31T21:45:42.473Z,37.67
2019-01-31T21:48:11.624Z,38.97
2019-01-31T21:50:40.828Z,39.23
2019-01-31T21:53:10.096Z,38.53
2019-01-31T21:55:39.457Z,38.13
2019-01-31T21:58:08.555Z,39.20
2019-01-31T22:00:37.885Z,39.70
2019-01-31T22:03:08.510Z,39.20
2019-01-31T22:05:37.762Z,39.27
2019-01-31T22:08:07.012Z,40.43
2019-01-31T22:10:36.073Z,38.73
2019-01-31T22:13:05.371Z,39.10
2019-01-31T22:15:35.187Z,39.87
2019-01-31T22:18:04.881Z,38.63
2019-01-31T22:20:33.991Z,39.97
2019-01-31T22:23:02.915Z,38.63
2019-01-31T22:25:31.962Z,40.27
2019-01-31T22:28:00.933Z,38.93
2019-01-31T22:30:35.151Z,38.97
2019-01-31T22:33:04.820Z,38.00
2019-01-31T22:35:33.758Z,38.83
2019-01-31T22:38:03.186Z,39.37
2019-01-31T22:40:32.247Z,40.23
2019-01-31T22:43:01.256Z,38.97
2019-01-31T22:45:30.699Z,39.50
2019-01-31T22:48:00.308Z,39.50
2019-01-31T22:50:29.617Z,38.47
2019-01-31T22:52:58.734Z,41.23
2019-01-31T22:55:28.378Z,39.33
2019-01-31T22:57:57.711Z,40.73
2019-01-31T23:01:41.285Z,40.10
2019-01-31T23:04:10.418Z,39.53
2019-01-31T23:06:39.479Z,40.63
2019-01-31T23:09:11.459Z,39.30
2019-01-31T23:11:40.494Z,40.23
2019-01-31T23:14:09.715Z,40.33
2019-01-31T23:16:38.799Z,39.83
2019-01-31T23:19:07.821Z,39.90
2019-01-31T23:21:36.845Z,40.07
2019-01-31T23:24:06.516Z,38.93
2019-01-31T23:26:36.540Z,38.23
2019-01-31T23:29:06.663Z,40.73
2019-01-31T23:31:35.772Z,39.20
2019-01-31T23:34:05.558Z,40.17
2019-01-31T23:36:34.502Z,40.67
2019-01-31T23:39:05.101Z,37.57
2019-01-31T23:41:34.048Z,38.20
2019-01-31T23:44:02.975Z,39.93
2019-01-31T23:46:31.915Z,39.23
2019-01-31T23:49:00.911Z,39.87
2019-01-31T23:51:29.937Z,38.70
2019-01-31T23:53:58.875Z,40.30
2019-01-31T23:56:28.223Z,40.57
2019-01-31T23:58:57.223Z,39.33
